Bhubaneswar, India

1:57 AM IST on September 03, 2014 (GMT +0530)
Bhubaneswar | Change Station
CLOSE
Current Station
Airport
Location: Bhubaneswar,
Elevation: 151 ft
Nearby Weather Stations

Elev 151 ft 20.24 °N, 85.82 °E | Updated 2 days ago

Rain
Rain
81 °F
Feels Like 86 °F
N
3
Wind Variable Wind from WSW
Gusts mph

Today
High -- | Low -- °F
--% Chance of Precip.
Yesterday
High -- | Low -- °F
Precip. -- in
5:31 AM 6:00 PM
First Quarter, 54% visible
Pressure 29.44 in
Visibility 1.9 miles
Clouds Scattered Clouds 1800 ft
Few 3000 ft
Mostly Cloudy 9000 ft
Heat Index 86 °F
Dew Point 77 °F
Humidity 88%
Rainfall 0.00 in
Snow Depth Not available.
UV 0 out of 12
Pollen Not available.
Air Quality Not available.
Flu Activity Not available.
METAR VEBS 311300Z 19003KT 3000 HZ SCT018 FEW030CB BKN090 26/25 Q0997 NOSIG

More Conditions Fewer Conditions

Pressure 29.44 in
Visibility 1.9 miles
Clouds Scattered Clouds 1800 ft
Few 3000 ft
Mostly Cloudy 9000 ft
Heat Index 86 °F
Dew Point 77 °F
Humidity 88%
Rainfall 0.00 in
Snow Depth Not available.
UV 0 out of 12
Pollen Not available.
Air Quality Not available.
Flu Activity Not available.
METAR VEBS 311300Z 19003KT 3000 HZ SCT018 FEW030CB BKN090 26/25 Q0997 NOSIG

More Conditions Fewer Conditions

10-Day Weather Forecast

Almanac

Astronomy

Sep. 03, 2014 Rise Set
Actual Time 5:31 AM IST 6:00 PM IST
Civil Twilight 5:08 AM IST 6:23 PM IST
Nautical Twilight 4:42 AM IST 6:49 PM IST
Astronomical Twilight 4:16 AM IST 7:15 PM IST
Moon 12:50 PM IST (9/3) 12:18 AM IST (9/4)
Length of Visible Light 13h 14m
Length of Day
12h 29m
Tomorrow will be 1m 7s shorter.
First Quarter, 54% of the Moon is Illuminated
Sep 2
First Quarter
Sep 8
Full
Sep 15
Last Quarter
Sep 24
New
Oct 1
First Quarter

Yesterday's Extremes

Country Highs Country Lows

Community

WunderPhotos

Upload Photos

1,749,757 photos uploaded!

WunderBlogs® & News

By Dr. Jeff Masters
Director of Meteorology, Weather Underground
By Kari Strenfel
Meteorologist, Weather Underground
By Christopher C. Burt
Weather Historian, Weather Underground
September 2, 2014
September 2, 2014
September 2, 2014

Nearby

Snow Depth

Not available.

Earthquake Activity

City Distance Mag. Time & Date
No recent earthquake activity has been reported nearby.
Minimum magnitude displayed is 2.5.

Coastal Water Temperatures

Place Temperature
No Stations Reporting

Nearby Weather Stations